Time;durP1;ratioP1;P1;durP2;ratioP2;P2;SDS_P1;SDS_P2;PMS_P1;PMS_P2;Temp;Humidity;BMP_temperature;BMP_pressure;BME280_temperature;BME280_humidity;BME280_pressure;Samples;Min_cycle;Max_cycle;Signal;HPM_P1;HPM_P2
2022/11/18 00:01:48;;;;;;;2.15;1.02;;;10.70;99.90;;;10.68;100.00;99059.88;5110917;28;20048;-87
2022/11/18 00:04:21;;;;;;;1.58;0.95;;;10.70;99.90;;;10.71;100.00;99065.13;5105178;28;20086;-86
2022/11/18 00:06:54;;;;;;;2.42;0.98;;;10.70;99.90;;;10.71;100.00;99066.00;5090187;29;20052;-85
2022/11/18 00:09:26;;;;;;;2.10;0.90;;;10.80;99.90;;;10.73;100.00;99068.59;5090234;29;20048;-85
2022/11/18 00:14:48;;;;;;;2.13;0.98;;;10.80;99.90;;;10.78;100.00;99069.50;5089960;29;20048;-87
2022/11/18 00:17:20;;;;;;;1.98;0.90;;;10.80;99.90;;;10.79;100.00;99068.63;5089859;29;20060;-88
2022/11/18 00:19:53;;;;;;;0.82;0.80;;;10.80;99.90;;;10.79;100.00;99074.72;5090169;29;20056;-86
2022/11/18 00:22:25;;;;;;;2.00;0.82;;;10.80;99.90;;;10.80;100.00;99070.38;5090269;29;20430;-86
2022/11/18 00:24:57;;;;;;;3.13;0.98;;;10.80;99.90;;;10.80;100.00;99072.97;5122749;28;20052;-85
2022/11/18 00:27:30;;;;;;;0.88;0.80;;;10.80;99.90;;;10.79;100.00;99076.47;5109701;29;20053;-85
2022/11/18 00:30:03;;;;;;;1.25;0.90;;;10.80;99.90;;;10.80;100.00;99072.97;5124590;29;20062;-86
2022/11/18 00:32:35;;;;;;;2.53;1.10;;;10.80;99.90;;;10.79;100.00;99076.47;5124570;29;20048;-85
2022/11/18 00:35:09;;;;;;;3.90;0.90;;;10.80;99.90;;;10.78;100.00;99077.31;5108749;29;20056;-86
2022/11/18 00:37:41;;;;;;;4.85;1.13;;;10.80;99.90;;;10.69;100.00;99062.47;5109416;29;20044;-85
2022/11/18 00:40:13;;;;;;;3.10;1.10;;;10.70;99.90;;;10.71;100.00;99062.50;5109758;29;20059;-86
2022/11/18 00:42:51;;;;;;;3.03;1.17;;;10.70;99.90;;;10.70;100.00;99066.84;5111756;29;20047;-86
2022/11/18 00:45:23;;;;;;;2.17;0.93;;;10.70;99.90;;;10.70;100.00;99073.81;5112499;29;20043;-86
2022/11/18 00:47:55;;;;;;;3.25;0.93;;;10.70;99.90;;;10.65;100.00;99070.28;5112180;29;20082;-86
2022/11/18 00:50:29;;;;;;;1.13;0.95;;;10.70;99.90;;;10.65;100.00;99078.97;5113398;29;20055;-86
2022/11/18 00:53:01;;;;;;;1.98;0.80;;;10.60;99.90;;;10.61;100.00;99082.41;5130058;29;20047;-86
2022/11/18 00:55:33;;;;;;;1.77;0.80;;;10.60;99.90;;;10.56;100.00;99095.41;5112998;29;20052;-86
2022/11/18 00:58:05;;;;;;;1.33;0.80;;;10.60;99.90;;;10.54;100.00;99093.63;5109220;29;20142;-85
2022/11/18 01:00:37;;;;;;;1.50;1.00;;;10.50;99.90;;;10.50;100.00;99095.38;5108509;29;20055;-86
2022/11/18 01:03:09;;;;;;;2.78;1.35;;;10.50;99.90;;;10.49;100.00;99101.41;5124907;29;20066;-86
2022/11/18 01:05:43;;;;;;;1.85;0.70;;;10.50;99.90;;;10.47;100.00;99103.13;5124341;28;20051;-86
2022/11/18 01:08:16;;;;;;;4.18;1.00;;;10.50;99.90;;;10.48;100.00;99104.88;5108613;29;20047;-86
2022/11/18 01:10:51;;;;;;;1.20;0.82;;;10.40;99.90;;;10.45;100.00;99094.44;5109828;29;20127;-86
2022/11/18 01:13:24;;;;;;;2.63;1.10;;;10.50;99.90;;;10.48;100.00;99098.81;5109066;29;20502;-86
2022/11/18 01:15:58;;;;;;;1.42;0.80;;;10.50;99.90;;;10.46;100.00;99101.41;5109658;29;20107;-86
2022/11/18 01:18:31;;;;;;;2.72;0.95;;;10.50;99.90;;;10.47;100.00;99105.75;5109092;29;20055;-86
2022/11/18 01:21:06;;;;;;;1.98;0.88;;;10.50;99.90;;;10.45;100.00;99114.41;5109014;29;20052;-86
2022/11/18 01:23:38;;;;;;;1.65;1.15;;;10.40;99.90;;;10.42;100.00;99112.63;5108563;29;20419;-86
2022/11/18 01:26:14;;;;;;;5.50;1.33;;;10.40;99.90;;;10.40;100.00;99118.72;5123697;29;20056;-86
2022/11/18 01:28:46;;;;;;;1.50;0.90;;;10.40;99.90;;;10.38;100.00;99123.03;5107468;29;20048;-86
2022/11/18 01:31:19;;;;;;;1.80;1.02;;;10.40;99.90;;;10.35;100.00;99110.84;5107820;29;20544;-86
2022/11/18 01:33:52;;;;;;;2.28;1.17;;;10.40;99.90;;;10.33;100.00;99120.38;5107216;29;20150;-87
2022/11/18 01:36:27;;;;;;;1.30;1.00;;;10.40;99.90;;;10.30;100.00;99100.41;5120258;28;20165;-87
2022/11/18 01:38:59;;;;;;;2.08;0.88;;;10.40;99.90;;;10.34;100.00;99109.09;5132680;28;20104;-88
2022/11/18 01:41:31;;;;;;;2.03;0.90;;;10.40;99.90;;;10.32;100.00;99119.50;5132461;28;20039;-87
2022/11/18 01:44:26;;;;;;;2.55;1.25;;;10.40;99.90;;;10.31;100.00;99125.59;5117789;29;20044;-86
2022/11/18 01:46:58;;;;;;;1.40;0.90;;;10.40;99.90;;;10.31;100.00;99127.31;5115518;29;20052;-86
2022/11/18 01:49:30;;;;;;;2.92;1.25;;;10.40;99.90;;;10.35;100.00;99123.00;5114782;29;20051;-86
2022/11/18 01:52:04;;;;;;;1.90;0.93;;;10.40;99.90;;;10.35;100.00;99123.88;5114792;29;20051;-86
2022/11/18 01:54:40;;;;;;;1.92;0.90;;;10.40;99.90;;;10.39;100.00;99135.19;5116429;29;20023;-86
2022/11/18 01:57:18;;;;;;;3.38;1.10;;;10.40;99.90;;;10.39;100.00;99136.06;5116804;29;20072;-86
2022/11/18 01:59:55;;;;;;;1.58;0.70;;;10.40;99.90;;;10.41;100.00;99134.34;5115586;29;20051;-86
2022/11/18 02:02:28;;;;;;;2.15;0.70;;;10.40;99.90;;;10.42;100.00;99130.88;5098760;29;20066;-86
2022/11/18 02:05:02;;;;;;;1.25;0.82;;;10.40;99.90;;;10.44;100.00;99138.72;5116613;29;20118;-87
2022/11/18 02:07:41;;;;;;;4.10;1.08;;;10.40;99.90;;;10.43;100.00;99143.06;5115799;29;20219;-86
2022/11/18 02:10:20;;;;;;;2.13;0.90;;;10.40;99.90;;;10.42;100.00;99138.69;5115021;29;20058;-86
2022/11/18 02:12:54;;;;;;;2.50;0.80;;;10.40;99.90;;;10.43;100.00;99143.06;5130299;29;20422;-86
2022/11/18 02:15:40;;;;;;;2.70;0.95;;;10.40;99.90;;;10.46;100.00;99142.22;5114456;29;20514;-87
2022/11/18 02:18:26;;;;;;;0.95;0.85;;;10.50;99.90;;;10.47;100.00;99147.41;5114068;29;20063;-86
2022/11/18 02:21:21;;;;;;;1.27;0.82;;;10.50;99.90;;;10.46;100.00;99148.28;5114227;29;20063;-87
2022/11/18 02:24:17;;;;;;;1.10;0.80;;;10.50;99.90;;;10.46;100.00;99158.72;5130810;28;20055;-86
2022/11/18 02:27:33;;;;;;;2.13;1.13;;;10.50;99.90;;;10.46;100.00;99153.50;5116179;29;20044;-87
2022/11/18 02:30:08;;;;;;;1.13;0.82;;;10.50;99.90;;;10.44;100.00;99163.03;5115693;29;20050;-87
2022/11/18 02:32:46;;;;;;;2.05;0.95;;;10.50;99.90;;;10.46;100.00;99158.72;5131328;28;20048;-87
2022/11/18 02:35:25;;;;;;;1.90;1.00;;;10.50;99.90;;;10.43;100.00;99160.41;5130869;29;20275;-86
2022/11/18 02:38:04;;;;;;;2.17;1.10;;;10.50;99.90;;;10.46;100.00;99165.66;5114873;29;20059;-86
2022/11/18 02:40:40;;;;;;;1.13;0.70;;;10.40;99.90;;;10.46;100.00;99169.13;5115953;29;20040;-86
2022/11/18 02:43:19;;;;;;;1.38;0.95;;;10.50;99.90;;;10.48;100.00;99167.41;5114815;29;20058;-87
2022/11/18 02:45:58;;;;;;;4.28;1.40;;;10.50;99.90;;;10.49;100.00;99168.28;5116732;29;20054;-88
2022/11/18 02:48:35;;;;;;;2.75;1.35;;;10.50;99.90;;;10.48;100.00;99172.59;5113147;29;20055;-86
2022/11/18 02:51:10;;;;;;;2.75;0.90;;;10.50;99.90;;;10.48;100.00;99166.53;5129488;29;20052;-87
2022/11/18 02:53:43;;;;;;;3.67;1.00;;;10.50;99.90;;;10.47;100.00;99170.88;5113592;29;20066;-86
2022/11/18 02:56:17;;;;;;;2.17;1.33;;;10.50;99.90;;;10.47;100.00;99176.06;5113797;29;20526;-86
2022/11/18 02:58:49;;;;;;;2.88;1.17;;;10.50;99.90;;;10.48;100.00;99171.75;5130099;29;20051;-86
2022/11/18 03:01:26;;;;;;;2.50;1.20;;;10.50;99.90;;;10.49;100.00;99176.09;5113888;29;20058;-86
2022/11/18 03:03:58;;;;;;;2.83;1.40;;;10.50;99.90;;;10.51;100.00;99177.88;5115045;29;20442;-86
2022/11/18 03:06:35;;;;;;;1.73;1.20;;;10.50;99.90;;;10.52;100.00;99173.53;5115042;29;20257;-87
2022/11/18 03:09:12;;;;;;;2.78;1.35;;;10.50;99.90;;;10.50;100.00;99181.34;5115006;29;20048;-87
2022/11/18 03:11:52;;;;;;;4.22;1.25;;;10.50;99.90;;;10.51;100.00;99183.06;5132496;29;20047;-87
2022/11/18 03:14:33;;;;;;;2.28;1.02;;;10.50;99.90;;;10.51;100.00;99198.72;5118747;28;20059;-86
2022/11/18 03:17:13;;;;;;;2.95;1.45;;;10.50;99.90;;;10.50;100.00;99196.97;5116999;29;20058;-87
2022/11/18 03:20:03;;;;;;;2.28;1.40;;;10.50;99.90;;;10.45;100.00;99198.66;5114927;29;20111;-86
2022/11/18 03:22:40;;;;;;;4.25;1.00;;;10.50;99.90;;;10.46;100.00;99202.13;5126598;29;20059;-87
2022/11/18 03:25:20;;;;;;;2.90;1.15;;;10.50;99.90;;;10.45;100.00;99192.56;5111123;29;20056;-86
2022/11/18 03:28:02;;;;;;;1.67;1.08;;;10.50;99.90;;;10.44;100.00;99199.50;5110695;29;20072;-86
2022/11/18 03:30:40;;;;;;;1.85;1.13;;;10.50;99.90;;;10.41;100.00;99193.38;5110123;29;20051;-86
2022/11/18 03:33:21;;;;;;;4.07;1.15;;;10.40;99.90;;;10.44;100.00;99207.31;5115852;29;20052;-86
2022/11/18 03:35:54;;;;;;;3.47;1.35;;;10.40;99.90;;;10.46;100.00;99209.94;5112979;29;20051;-87
2022/11/18 03:38:31;;;;;;;1.88;1.30;;;10.50;99.90;;;10.44;100.00;99211.66;5112525;29;20054;-86
2022/11/18 03:41:08;;;;;;;2.47;1.42;;;10.50;99.90;;;10.43;100.00;99216.00;5110373;29;20058;-87
2022/11/18 03:43:46;;;;;;;3.63;1.40;;;10.50;99.90;;;10.41;100.00;99222.91;5109433;29;20528;-86
2022/11/18 03:46:23;;;;;;;3.22;1.30;;;10.40;99.90;;;10.40;100.00;99226.38;5126450;29;20059;-86
2022/11/18 03:48:59;;;;;;;2.55;1.20;;;10.40;99.90;;;10.39;100.00;99224.63;5110699;29;20047;-86
2022/11/18 03:51:36;;;;;;;3.28;1.70;;;10.40;99.90;;;10.39;100.00;99232.44;5109552;29;20086;-86
2022/11/18 03:54:13;;;;;;;2.88;1.67;;;10.40;99.90;;;10.35;100.00;99228.03;5109321;29;20051;-86
2022/11/18 03:56:54;;;;;;;3.53;1.60;;;10.40;99.90;;;10.35;100.00;99233.25;5108010;29;20066;-86
2022/11/18 03:59:32;;;;;;;2.88;1.63;;;10.40;99.90;;;10.36;100.00;99245.41;5107355;29;20055;-86
2022/11/18 04:02:09;;;;;;;4.88;3.10;;;10.40;99.90;;;10.36;100.00;99244.53;5108892;29;20039;-86
2022/11/18 04:04:45;;;;;;;4.40;3.28;;;10.40;99.90;;;10.36;100.00;99250.63;5107692;29;20051;-86
2022/11/18 04:07:23;;;;;;;5.97;2.60;;;10.40;99.90;;;10.36;100.00;99262.78;5107574;29;20066;-86
2022/11/18 04:10:01;;;;;;;4.20;2.30;;;10.40;99.90;;;10.35;100.00;99264.50;5107118;29;20063;-86
2022/11/18 04:12:40;;;;;;;5.03;1.83;;;10.40;99.90;;;10.33;100.00;99258.41;5108001;29;20078;-86
2022/11/18 04:15:12;;;;;;;3.92;2.20;;;10.30;99.90;;;10.31;100.00;99262.75;5123645;28;20059;-86
2022/11/18 04:17:45;;;;;;;3.13;1.95;;;10.40;99.90;;;10.32;100.00;99272.31;5108854;29;20055;-84
2022/11/18 04:20:21;;;;;;;2.67;1.70;;;10.40;99.90;;;10.32;100.00;99278.38;5106953;29;20070;-86
2022/11/18 04:22:53;;;;;;;2.78;1.70;;;10.30;99.90;;;10.32;100.00;99275.78;5108790;29;20058;-86
2022/11/18 04:25:25;;;;;;;3.97;2.00;;;10.40;99.90;;;10.33;100.00;99281.84;5107090;29;20426;-86
2022/11/18 04:27:57;;;;;;;3.97;1.83;;;10.40;99.90;;;10.35;100.00;99279.25;5107326;29;20070;-86
2022/11/18 04:30:30;;;;;;;6.60;2.95;;;10.40;99.90;;;10.34;100.00;99278.38;5107185;29;20422;-86
2022/11/18 04:33:02;;;;;;;4.78;2.42;;;10.40;99.90;;;10.35;100.00;99285.34;5107340;29;20510;-87
2022/11/18 04:35:35;;;;;;;5.30;3.00;;;10.40;99.90;;;10.33;100.00;99287.94;5109387;29;20047;-86
2022/11/18 04:38:08;;;;;;;4.85;2.60;;;10.40;99.90;;;10.32;100.00;99290.53;5107614;29;20051;-86
2022/11/18 04:40:39;;;;;;;4.18;2.30;;;10.40;99.90;;;10.34;100.00;99294.03;5123243;29;20059;-86
2022/11/18 04:43:12;;;;;;;4.25;2.50;;;10.40;99.90;;;10.32;100.00;99291.41;5106241;29;20063;-86
2022/11/18 04:45:44;;;;;;;5.07;2.17;;;10.40;99.90;;;10.31;100.00;99288.78;5108552;29;20067;-86
2022/11/18 04:48:16;;;;;;;3.78;2.00;;;10.30;99.90;;;10.31;100.00;99283.59;5109587;29;20055;-86
2022/11/18 04:50:49;;;;;;;4.43;1.90;;;10.40;99.90;;;10.29;100.00;99287.88;5108564;29;20063;-86
2022/11/18 04:53:21;;;;;;;4.28;1.67;;;10.30;99.90;;;10.29;100.00;99298.28;5110044;29;20048;-86
2022/11/18 04:55:53;;;;;;;3.90;1.63;;;10.30;99.90;;;10.27;100.00;99297.41;5109424;29;20213;-86
2022/11/18 04:58:25;;;;;;;3.22;1.95;;;10.30;99.90;;;10.25;100.00;99299.13;5108337;29;20418;-86
2022/11/18 05:00:57;;;;;;;4.22;2.15;;;10.30;99.90;;;10.23;100.00;99306.91;5109625;29;20048;-86
2022/11/18 05:03:29;;;;;;;2.30;1.55;;;10.30;99.90;;;10.23;100.00;99311.22;5107395;29;20078;-87
2022/11/18 05:06:03;;;;;;;2.63;1.55;;;10.30;99.90;;;10.21;100.00;99302.50;5108339;29;20052;-86
2022/11/18 05:08:35;;;;;;;4.88;2.22;;;10.30;99.90;;;10.19;100.00;99305.09;5111475;29;20040;-87
2022/11/18 05:13:53;;;;;;;4.05;2.00;;;10.20;99.90;;;10.15;100.00;99310.25;5112903;29;20056;-87
2022/11/18 05:16:26;;;;;;;2.83;1.80;;;10.20;99.90;;;10.13;100.00;99314.56;5113148;29;20430;-86
2022/11/18 05:18:58;;;;;;;3.00;1.75;;;10.20;99.90;;;10.10;100.00;99317.09;5113822;29;20048;-86
2022/11/18 05:21:31;;;;;;;3.90;1.90;;;10.10;99.90;;;10.06;100.00;99313.59;5115503;29;20040;-86
2022/11/18 05:24:05;;;;;;;5.00;1.83;;;10.10;99.90;;;10.04;100.00;99321.41;5114509;29;20414;-87
2022/11/18 05:26:37;;;;;;;2.97;1.70;;;10.10;99.90;;;10.02;100.00;99323.09;5111667;29;20430;-88
2022/11/18 05:29:09;;;;;;;2.42;1.80;;;10.10;99.90;;;9.99;100.00;99328.25;5114359;29;20048;-86
2022/11/18 05:31:41;;;;;;;3.70;1.75;;;10.00;99.90;;;9.96;100.00;99330.81;5116548;29;20055;-87
2022/11/18 05:34:14;;;;;;;3.50;1.90;;;10.00;99.90;;;9.96;100.00;99337.75;5118563;29;20131;-86
2022/11/18 05:36:48;;;;;;;2.33;1.65;;;10.00;99.90;;;9.95;100.00;99349.88;5119067;29;20450;-86
2022/11/18 05:39:20;;;;;;;4.10;1.83;;;10.00;99.90;;;9.95;100.00;99347.28;5119015;29;20036;-87
2022/11/18 05:44:41;;;;;;;4.05;1.67;;;10.00;99.90;;;9.98;100.00;99346.47;5152746;28;20104;-85
2022/11/18 05:47:14;;;;;;;2.92;1.67;;;10.00;99.90;;;9.98;100.00;99346.47;5154761;28;20067;-85
2022/11/18 05:49:46;;;;;;;3.60;1.40;;;10.00;99.90;;;9.97;100.00;99353.38;5154352;28;20053;-84
2022/11/18 05:52:19;;;;;;;4.40;2.33;;;10.10;99.90;;;9.97;100.00;99349.91;5154407;28;20046;-86
2022/11/18 05:54:51;;;;;;;4.03;2.15;;;10.00;99.90;;;9.95;100.00;99357.69;5153213;28;20417;-85
2022/11/18 05:57:24;;;;;;;3.47;1.50;;;10.00;99.90;;;9.94;100.00;99358.56;5152825;28;20051;-85
2022/11/18 05:59:56;;;;;;;3.58;1.63;;;10.00;99.90;;;9.95;100.00;99356.81;5155453;28;20049;-85
2022/11/18 06:02:29;;;;;;;5.60;2.90;;;10.00;99.90;;;9.95;100.00;99359.44;5155383;28;20059;-86
2022/11/18 06:05:04;;;;;;;5.03;3.28;;;10.00;99.90;;;9.93;100.00;99359.41;5160916;28;20050;-85
2022/11/18 06:07:41;;;;;;;5.00;3.35;;;10.00;99.90;;;9.94;100.00;99363.75;5151690;28;20043;-86
2022/11/18 06:10:18;;;;;;;4.20;2.45;;;10.00;99.90;;;9.94;100.00;99363.75;5151360;28;20050;-86
2022/11/18 06:12:55;;;;;;;4.75;2.28;;;10.00;99.90;;;9.95;100.00;99377.66;5151852;28;20054;-85
2022/11/18 06:15:32;;;;;;;3.08;1.90;;;10.00;99.90;;;9.96;100.00;99372.47;5153547;28;20049;-86
2022/11/18 06:18:09;;;;;;;3.30;1.90;;;10.00;99.90;;;9.96;100.00;99379.41;5152130;28;20058;-86
2022/11/18 06:20:42;;;;;;;2.47;1.73;;;10.00;99.90;;;9.96;100.00;99375.06;5153393;28;20047;-86
2022/11/18 06:23:16;;;;;;;2.35;1.67;;;10.00;99.90;;;9.94;100.00;99387.19;5151936;28;20050;-86
2022/11/18 06:25:48;;;;;;;2.75;1.60;;;10.00;99.90;;;9.91;100.00;99391.47;5151187;28;20513;-86
2022/11/18 06:28:21;;;;;;;2.63;1.40;;;10.00;99.90;;;9.88;100.00;99394.03;5151507;28;20061;-86
2022/11/18 06:30:53;;;;;;;3.05;1.67;;;9.90;99.90;;;9.83;100.00;99399.16;5151827;28;20038;-86
2022/11/18 06:33:25;;;;;;;3.13;1.60;;;9.90;99.90;;;9.78;100.00;99403.44;5152012;28;20047;-85
2022/11/18 06:35:57;;;;;;;1.40;1.00;;;9.80;99.90;;;9.77;100.00;99404.25;5152842;28;20056;-85
2022/11/18 06:38:31;;;;;;;4.63;1.63;;;9.80;99.90;;;9.76;100.00;99418.13;5151056;28;20061;-86
2022/11/18 06:41:03;;;;;;;1.30;1.10;;;9.80;99.90;;;9.73;100.00;99413.75;5151619;28;20057;-86
2022/11/18 06:43:42;;;;;;;2.25;1.50;;;9.70;99.90;;;9.73;100.00;99418.97;5151669;28;20051;-86
2022/11/18 06:49:06;;;;;;;2.72;1.30;;;9.70;99.90;;;9.74;100.00;99425.91;5151878;28;20318;-85
2022/11/18 06:51:39;;;;;;;2.15;1.60;;;9.70;99.90;;;9.76;100.00;99429.41;5153236;28;20430;-86
2022/11/18 06:54:12;;;;;;;2.28;1.30;;;9.80;99.90;;;9.76;100.00;99428.53;5153507;28;20050;-85
2022/11/18 06:56:44;;;;;;;3.20;1.40;;;9.80;99.90;;;9.78;100.00;99430.34;5150306;28;20209;-85
2022/11/18 06:59:22;;;;;;;2.60;1.63;;;9.80;99.90;;;9.80;100.00;99432.94;5147981;28;20043;-84
2022/11/18 07:01:54;;;;;;;5.07;1.77;;;9.80;99.90;;;9.82;100.00;99445.97;5148524;28;20454;-85
2022/11/18 07:04:26;;;;;;;2.28;1.38;;;9.80;99.90;;;9.82;100.00;99441.66;5148358;28;20070;-84
2022/11/18 07:06:58;;;;;;;2.67;1.40;;;9.80;99.90;;;9.83;100.00;99448.59;5146930;28;20066;-84
2022/11/18 07:09:31;;;;;;;2.63;1.90;;;9.80;99.90;;;9.86;100.00;99453.88;5146974;28;20445;-84
2022/11/18 07:12:05;;;;;;;2.67;1.63;;;9.90;99.90;;;9.88;100.00;99459.97;5146023;28;20425;-85
2022/11/18 07:14:37;;;;;;;3.60;1.67;;;9.90;99.90;;;9.90;100.00;99467.78;5148113;28;20058;-84
2022/11/18 07:17:09;;;;;;;3.85;1.38;;;9.90;99.90;;;9.91;100.00;99470.44;5146789;28;20054;-85
2022/11/18 07:19:41;;;;;;;3.22;1.50;;;9.90;99.90;;;9.92;100.00;99472.19;5147973;28;20047;-84
2022/11/18 07:22:14;;;;;;;2.78;1.35;;;9.90;99.90;;;9.94;100.00;99474.81;5146463;28;20054;-83
2022/11/18 07:24:47;;;;;;;3.83;1.60;;;10.00;99.90;;;9.94;100.00;99486.09;5146385;28;20050;-83
2022/11/18 07:27:19;;;;;;;2.95;1.45;;;10.00;99.90;;;9.98;100.00;99481.84;5145382;28;20061;-84
2022/11/18 07:29:51;;;;;;;2.20;1.30;;;10.00;99.90;;;9.99;100.00;99487.06;5145833;28;20054;-85
2022/11/18 07:32:23;;;;;;;2.05;1.30;;;10.00;99.90;;;10.02;100.00;99492.31;5145877;28;20560;-84
2022/11/18 07:34:55;;;;;;;1.88;1.30;;;10.00;99.90;;;10.03;100.00;99496.66;5145407;28;20055;-84
2022/11/18 07:37:27;;;;;;;2.05;1.35;;;10.00;99.90;;;10.05;100.00;99504.50;5146039;28;20054;-84
2022/11/18 07:40:00;;;;;;;3.70;1.23;;;10.10;99.90;;;10.08;100.00;99499.34;5146422;28;20050;-84
2022/11/18 07:42:41;;;;;;;3.30;1.50;;;10.10;99.90;;;10.11;100.00;99503.75;5145931;28;20057;-85
2022/11/18 07:45:27;;;;;;;2.88;1.35;;;10.10;99.90;;;10.15;100.00;99510.72;5145560;28;20058;-83
2022/11/18 07:47:59;;;;;;;1.52;1.33;;;10.10;99.90;;;10.16;100.00;99512.47;5145292;28;20501;-83
2022/11/18 07:50:31;;;;;;;2.40;1.33;;;10.20;99.90;;;10.17;100.00;99514.22;5146110;28;20047;-84
2022/11/18 07:53:03;;;;;;;3.22;1.67;;;10.20;99.90;;;10.21;100.00;99516.03;5147002;28;20051;-84
2022/11/18 07:55:36;;;;;;;2.95;1.67;;;10.20;99.90;;;10.23;100.00;99516.97;5146542;28;20050;-84
2022/11/18 07:58:08;;;;;;;2.28;1.40;;;10.20;99.90;;;10.24;100.00;99519.63;5145624;28;20069;-86
2022/11/18 08:00:40;;;;;;;2.15;1.40;;;10.20;99.90;;;10.29;100.00;99527.47;5147159;28;20131;-84
2022/11/18 08:03:12;;;;;;;2.50;1.35;;;10.30;99.90;;;10.32;100.00;99530.16;5146057;28;20054;-86
2022/11/18 08:05:44;;;;;;;3.40;1.48;;;10.30;99.90;;;10.35;100.00;99530.19;5146970;28;20058;-86
2022/11/18 08:08:16;;;;;;;4.18;1.60;;;10.30;99.90;;;10.39;100.00;99542.41;5148444;28;20047;-86
2022/11/18 08:10:50;;;;;;;4.35;2.10;;;10.40;99.90;;;10.41;100.00;99535.47;5163838;28;20050;-85
2022/11/18 08:13:22;;;;;;;4.18;1.77;;;10.40;99.90;;;10.43;100.00;99540.72;5166121;28;20054;-85
2022/11/18 08:15:56;;;;;;;5.68;2.63;;;10.40;99.90;;;10.45;100.00;99546.84;5166852;28;20074;-85
2022/11/18 08:18:29;;;;;;;4.00;1.98;;;10.40;99.90;;;10.45;100.00;99542.50;5166310;28;20050;-85
2022/11/18 08:21:03;;;;;;;4.22;2.05;;;10.50;99.90;;;10.54;100.00;99545.25;5166831;28;20053;-84
2022/11/18 08:23:35;;;;;;;3.38;1.70;;;10.50;99.90;;;10.56;100.00;99546.16;5167283;28;20130;-83
2022/11/18 08:26:13;;;;;;;3.53;2.10;;;10.60;99.90;;;10.60;100.00;99560.09;5130431;28;20047;-84
2022/11/18 08:28:46;;;;;;;4.38;2.17;;;10.60;99.90;;;10.83;100.00;99544.81;5143928;28;20051;-84
2022/11/18 08:31:21;;;;;;;4.50;2.20;;;10.90;99.90;;;10.95;100.00;99552.75;5127219;28;20051;-84
2022/11/18 08:33:55;;;;;;;3.95;1.73;;;11.00;99.90;;;10.96;100.00;99556.28;5141886;28;20065;-83
2022/11/18 08:36:32;;;;;;;3.25;1.70;;;10.90;99.90;;;10.94;100.00;99557.97;5142331;28;20557;-83
2022/11/18 08:39:06;;;;;;;3.83;1.70;;;11.00;99.90;;;10.95;100.00;99568.41;5144002;28;20425;-84
2022/11/18 08:41:43;;;;;;;3.92;1.83;;;10.90;99.90;;;10.96;100.00;99570.19;5125704;28;20062;-83
2022/11/18 08:44:16;;;;;;;3.08;1.80;;;10.90;99.90;;;10.95;100.00;99575.34;5142299;28;20051;-85
2022/11/18 08:46:48;;;;;;;3.00;1.73;;;10.90;99.90;;;10.95;100.00;99576.22;5126271;29;20434;-83
2022/11/18 08:49:20;;;;;;;3.72;1.70;;;10.90;99.90;;;10.98;100.00;99576.28;5141730;28;20058;-84
2022/11/18 08:51:52;;;;;;;5.32;2.35;;;11.00;99.90;;;11.00;100.00;99584.13;5127543;28;20062;-85
2022/11/18 08:54:24;;;;;;;2.92;1.60;;;11.00;99.90;;;11.02;100.00;99583.31;5126685;28;20054;-85
2022/11/18 08:56:59;;;;;;;4.32;2.25;;;11.00;99.90;;;11.07;100.00;99585.94;5142027;28;20055;-82
2022/11/18 08:59:32;;;;;;;4.85;2.83;;;11.00;99.90;;;11.11;100.00;99588.63;5124617;28;20572;-83
2022/11/18 09:02:04;;;;;;;6.03;3.22;;;11.00;99.90;;;11.22;100.00;99586.19;5147697;28;20142;-83
2022/11/18 09:04:36;;;;;;;5.57;3.20;;;11.10;99.90;;;11.29;100.00;99592.34;5152120;28;20043;-84
2022/11/18 09:07:08;;;;;;;5.50;3.30;;;11.20;99.90;;;11.33;100.00;99592.38;5149694;28;20509;-84
2022/11/18 09:09:40;;;;;;;5.50;3.35;;;11.20;99.90;;;11.40;100.00;99594.22;5154048;28;20070;-83
2022/11/18 09:12:16;;;;;;;5.93;3.78;;;11.30;99.90;;;11.47;100.00;99584.72;5146592;28;20046;-86
2022/11/18 09:14:48;;;;;;;5.47;3.53;;;11.30;99.90;;;11.57;100.00;99589.22;5146993;28;20051;-84
2022/11/18 09:17:20;;;;;;;8.05;3.50;;;11.40;99.90;;;11.71;100.00;99588.50;5148006;28;20051;-84
2022/11/18 09:19:52;;;;;;;5.05;3.00;;;11.60;99.90;;;11.82;100.00;99594.75;5151402;28;20046;-86
2022/11/18 09:22:26;;;;;;;5.03;2.75;;;11.60;99.90;;;12.00;100.00;99600.16;5145485;28;20043;-85
2022/11/18 09:24:58;;;;;;;3.65;2.35;;;11.80;99.90;;;12.14;100.00;99598.56;5145648;28;20051;-85
2022/11/18 09:27:32;;;;;;;4.78;2.45;;;11.90;99.90;;;12.28;100.00;99606.50;5147067;28;20053;-85
2022/11/18 09:30:05;;;;;;;4.63;2.65;;;12.10;99.90;;;12.38;100.00;99610.06;5146420;28;20450;-85
2022/11/18 09:32:37;;;;;;;4.10;2.60;;;12.10;99.90;;;12.47;100.00;99610.16;5147663;28;20050;-85
2022/11/18 09:35:09;;;;;;;5.18;2.55;;;12.20;99.90;;;12.53;100.00;99615.44;5147366;28;20497;-84
2022/11/18 09:37:41;;;;;;;4.35;2.78;;;12.30;99.90;;;12.57;100.00;99619.81;5147346;28;20047;-85
2022/11/18 09:40:17;;;;;;;3.70;2.03;;;12.40;99.90;;;12.60;100.00;99624.22;5148017;28;20043;-85
2022/11/18 09:43:02;;;;;;;3.33;1.63;;;12.40;99.90;;;12.65;100.00;99631.22;5146848;28;20047;-84
2022/11/18 09:45:41;;;;;;;3.17;1.50;;;12.40;99.90;;;12.72;100.00;99635.63;5147375;28;20047;-84
2022/11/18 09:48:18;;;;;;;2.15;1.27;;;12.50;99.90;;;12.77;100.00;99646.13;5146519;28;20062;-84
2022/11/18 09:50:51;;;;;;;3.42;1.50;;;12.50;99.90;;;12.75;100.00;99645.25;5147927;28;20054;-84
2022/11/18 09:53:26;;;;;;;3.17;1.40;;;12.50;99.90;;;12.73;100.00;99647.84;5148017;28;20057;-85
2022/11/18 09:55:59;;;;;;;3.28;1.38;;;12.50;99.90;;;12.77;100.00;99654.84;5147710;28;20509;-85
2022/11/18 09:58:35;;;;;;;2.60;1.25;;;12.50;99.90;;;12.77;100.00;99652.22;5149078;28;20043;-84
2022/11/18 10:01:13;;;;;;;2.33;1.10;;;12.60;99.90;;;12.77;100.00;99647.00;5152457;28;20057;-85
2022/11/18 10:03:45;;;;;;;2.88;1.25;;;12.60;99.90;;;12.83;100.00;99650.53;5151263;28;20042;-84
2022/11/18 10:06:25;;;;;;;2.17;1.08;;;12.60;99.90;;;12.89;100.00;99653.19;5150388;28;20058;-85
2022/11/18 10:09:14;;;;;;;2.65;0.98;;;12.60;99.90;;;12.97;100.00;99657.59;5151577;28;20046;-85
2022/11/18 10:12:01;;;;;;;1.20;0.90;;;12.70;99.90;;;13.08;100.00;99665.53;5151797;28;20042;-85
2022/11/18 10:14:49;;;;;;;0.95;0.70;;;12.80;99.90;;;13.12;100.00;99667.31;5155788;28;20054;-84
2022/11/18 10:17:38;;;;;;;2.28;1.10;;;12.90;99.90;;;13.21;100.00;99669.13;5164224;28;20042;-86
2022/11/18 10:20:29;;;;;;;1.48;0.93;;;13.00;99.90;;;13.34;100.00;99667.47;5167505;28;20413;-85
2022/11/18 10:23:11;;;;;;;2.30;0.93;;;13.10;99.90;;;13.46;100.00;99672.78;5167500;28;20043;-85
2022/11/18 10:25:43;;;;;;;1.13;0.82;;;13.10;99.90;;;13.53;100.00;99677.16;5158392;28;20054;-84
2022/11/18 10:28:21;;;;;;;1.95;1.08;;;13.20;99.90;;;13.58;100.00;99678.06;5147885;28;20051;-82
2022/11/18 10:31:04;;;;;;;3.15;1.10;;;13.30;99.90;;;13.82;100.00;99678.19;5147304;28;20098;-86
2022/11/18 10:33:36;;;;;;;2.03;1.27;;;13.50;99.90;;;14.02;100.00;99674.78;5147129;28;20051;-85
2022/11/18 10:36:26;;;;;;;1.58;0.90;;;13.70;99.90;;;14.20;100.00;99689.66;5148861;28;20043;-90
2022/11/18 10:39:11;;;;;;;3.40;1.20;;;13.80;99.90;;;14.48;100.00;99690.63;5147504;28;20058;-85
2022/11/18 10:41:48;;;;;;;4.65;1.00;;;14.10;99.90;;;14.55;100.00;99687.13;5146811;28;20053;-86
2022/11/18 10:44:37;;;;;;;3.50;0.93;;;14.20;99.90;;;14.51;100.00;99688.88;5148447;28;20043;-86
2022/11/18 10:47:28;;;;;;;2.33;0.77;;;14.20;99.90;;;14.40;100.00;99688.81;5147096;28;20051;-85
2022/11/18 10:50:10;;;;;;;0.95;0.80;;;14.20;99.90;;;14.32;100.00;99695.78;5146316;28;20042;-86
2022/11/18 10:52:53;;;;;;;4.00;0.90;;;14.10;99.90;;;14.27;100.00;99697.50;5161983;28;20050;-84
2022/11/18 10:55:25;;;;;;;1.63;0.80;;;14.10;99.90;;;14.23;100.00;99701.03;5153318;28;20063;-85
2022/11/18 10:58:03;;;;;;;1.67;0.63;;;14.00;99.90;;;14.19;100.00;99698.38;5154110;28;20050;-85
2022/11/18 11:00:44;;;;;;;3.83;0.98;;;14.00;99.90;;;14.14;100.00;99695.72;5159118;28;20419;-84